2VG9 weather

Sentara Williamsburg Regional Medical Center Heliport
Williamsburg, Virginia, United States

Public forecast

Using degrees Fahrenheit for public forecast. Weather courtesy of forecast.io.

Closest aviation weather report (METAR) to Sentara Williamsburg Regional Medical Center Heliport

Closest report is Williamsburg Jamestown Airport, 5.9 nm (10.9 km) SSE. Retrieved 2019/10/20 07:35 UTC (0 seconds ago):

KJGG 200735Z AUTO 00000KT 10SM BKN055 16/13 A2993 RMK AO1

Closest aviation forecast (TAF) to Sentara Williamsburg Regional Medical Center Heliport

Forecast is more than 12 hours old.

Closest forecast is Felker Army Air Field, 13.7 nm (25.4 km) SSE. Retrieved 2019/10/18 18:54 UTC (2 days ago):

TAF TAF KFAF 181800Z 1818/1924 32010G15KT 9999 FEW040 QNH2997INS BECMG 1822/1823 VRB06KT 9999 SKC QNH3003INS TX18/1917Z TN09/1906Z LAST NO AMDS AFT 1903 NEXT 2110